createdAt,value
2019-05-07T00:01:51.344Z,28.83
2019-05-07T00:04:18.052Z,24.92
2019-05-07T00:06:46.499Z,25.10
2019-05-07T00:09:15.077Z,29.18
2019-05-07T00:11:43.509Z,24.60
2019-05-07T00:14:12.611Z,28.83
2019-05-07T00:16:42.342Z,32.80
2019-05-07T00:19:23.831Z,35.58
2019-05-07T00:22:02.393Z,18.48
2019-05-07T00:24:46.337Z,26.50
2019-05-07T00:27:22.429Z,26.87
2019-05-07T00:29:58.188Z,25.32
2019-05-07T00:32:32.799Z,23.92
2019-05-07T00:35:27.838Z,23.55
2019-05-07T00:38:02.551Z,22.67
2019-05-07T00:40:37.071Z,36.10
2019-05-07T00:43:12.432Z,28.77
2019-05-07T00:45:45.820Z,28.07
2019-05-07T00:48:42.303Z,28.00
2019-05-07T00:51:23.204Z,30.97
2019-05-07T00:54:12.352Z,25.27
2019-05-07T00:59:44.934Z,34.95
2019-05-07T01:02:16.857Z,24.50
2019-05-07T01:04:57.082Z,31.95
2019-05-07T01:07:52.755Z,30.77
2019-05-07T01:10:33.049Z,29.18
2019-05-07T01:16:04.054Z,30.45
2019-05-07T01:18:47.980Z,30.48
2019-05-07T01:21:16.423Z,31.23
2019-05-07T01:23:45.186Z,27.05
2019-05-07T01:26:14.119Z,32.60
2019-05-07T01:28:58.518Z,27.30
2019-05-07T01:31:32.915Z,32.85
2019-05-07T01:34:22.951Z,32.53
2019-05-07T01:36:52.355Z,30.48
2019-05-07T01:39:23.159Z,29.02
2019-05-07T01:42:08.517Z,29.77
2019-05-07T01:44:37.092Z,32.55
2019-05-07T01:47:05.538Z,30.12
2019-05-07T01:49:33.986Z,32.75
2019-05-07T01:52:02.756Z,33.42
2019-05-07T01:54:33.322Z,33.78
2019-05-07T01:57:02.870Z,26.25
2019-05-07T01:59:32.228Z,33.60
2019-05-07T02:02:08.074Z,30.60
2019-05-07T02:04:47.281Z,28.60
2019-05-07T02:07:26.317Z,30.30
2019-05-07T02:10:02.932Z,33.08
2019-05-07T02:12:33.367Z,29.98
2019-05-07T02:15:02.665Z,28.27
2019-05-07T02:17:32.213Z,31.17
2019-05-07T02:20:02.652Z,32.75
2019-05-07T02:22:31.995Z,35.40
2019-05-07T02:25:03.077Z,37.50
2019-05-07T02:27:32.660Z,35.33
2019-05-07T02:30:04.212Z,28.05
2019-05-07T02:32:33.555Z,37.33
2019-05-07T02:35:04.128Z,32.73
2019-05-07T02:37:46.408Z,30.27
2019-05-07T02:40:14.190Z,31.02
2019-05-07T02:42:44.325Z,29.85
2019-05-07T02:45:23.979Z,35.10
2019-05-07T02:47:52.724Z,32.85
2019-05-07T02:50:25.572Z,34.45
2019-05-07T02:52:55.632Z,29.50
2019-05-07T02:55:37.962Z,33.85
2019-05-07T02:58:06.488Z,38.10
2019-05-07T03:00:35.587Z,39.25
2019-05-07T03:03:04.686Z,39.13
2019-05-07T03:05:34.948Z,39.90
2019-05-07T03:08:03.813Z,39.58
2019-05-07T03:10:34.040Z,46.18
2019-05-07T03:13:03.214Z,40.52
2019-05-07T03:15:33.205Z,40.25
2019-05-07T03:18:03.412Z,41.83
2019-05-07T03:20:36.999Z,39.92
2019-05-07T03:23:06.266Z,35.28
2019-05-07T03:25:43.078Z,45.43
2019-05-07T03:28:13.601Z,40.98
2019-05-07T03:30:57.132Z,41.55
2019-05-07T03:33:47.273Z,40.52
2019-05-07T03:36:16.511Z,33.83
2019-05-07T03:38:44.630Z,32.25
2019-05-07T03:41:13.080Z,33.78
2019-05-07T03:43:43.498Z,37.80
2019-05-07T03:46:14.084Z,42.78
2019-05-07T03:48:44.389Z,33.30
2019-05-07T03:51:13.361Z,35.30
2019-05-07T03:53:43.670Z,34.80
2019-05-07T03:56:13.099Z,40.88
2019-05-07T03:58:43.287Z,40.43
2019-05-07T04:01:13.308Z,40.92
2019-05-07T04:03:44.692Z,42.67
2019-05-07T04:06:12.780Z,40.33
2019-05-07T04:08:43.342Z,28.80
2019-05-07T04:11:13.953Z,34.18
2019-05-07T04:13:44.150Z,27.90
2019-05-07T04:16:13.526Z,31.85
2019-05-07T04:18:43.853Z,34.20
2019-05-07T04:21:13.995Z,33.70
2019-05-07T04:23:43.794Z,36.30
2019-05-07T04:26:23.373Z,33.55
2019-05-07T04:29:05.658Z,32.98
2019-05-07T04:31:34.543Z,41.48
2019-05-07T04:34:04.839Z,36.50
2019-05-07T04:36:34.496Z,33.80
2019-05-07T04:39:03.342Z,38.30
2019-05-07T04:41:32.894Z,29.72
2019-05-07T04:44:03.585Z,33.98
2019-05-07T04:46:33.462Z,35.40
2019-05-07T04:49:03.779Z,29.30
2019-05-07T04:51:33.800Z,32.93
2019-05-07T04:54:03.531Z,32.38
2019-05-07T04:56:33.695Z,26.07
2019-05-07T04:59:03.619Z,32.00
2019-05-07T05:01:33.995Z,40.92
2019-05-07T05:04:20.706Z,29.95
2019-05-07T05:06:33.020Z,35.20
2019-05-07T05:09:03.050Z,27.67
2019-05-07T05:11:33.552Z,31.97
2019-05-07T05:14:02.853Z,34.03
2019-05-07T05:16:34.964Z,36.38
2019-05-07T05:19:03.402Z,36.85
2019-05-07T05:21:45.419Z,37.58
2019-05-07T05:24:15.511Z,41.33
2019-05-07T05:26:43.952Z,35.38
2019-05-07T05:29:12.377Z,36.45
2019-05-07T05:31:42.268Z,35.75
2019-05-07T05:34:12.959Z,39.65
2019-05-07T05:36:42.456Z,34.78
2019-05-07T05:39:13.124Z,32.38
2019-05-07T05:41:44.595Z,47.75
2019-05-07T05:44:26.666Z,44.20
2019-05-07T05:46:55.123Z,44.48
2019-05-07T05:49:23.544Z,46.10
2019-05-07T05:52:05.308Z,40.38
2019-05-07T05:54:35.384Z,36.23
2019-05-07T05:57:05.665Z,37.25
2019-05-07T05:59:47.960Z,30.82
2019-05-07T06:02:12.170Z,36.60
2019-05-07T06:04:42.338Z,35.52
2019-05-07T06:07:18.526Z,38.08
2019-05-07T06:09:48.595Z,36.48
2019-05-07T06:12:18.656Z,35.80
2019-05-07T06:14:48.733Z,42.67
2019-05-07T06:17:33.850Z,36.93
2019-05-07T06:20:06.732Z,32.48
2019-05-07T06:22:45.332Z,29.20
2019-05-07T06:25:15.661Z,33.38
2019-05-07T06:27:44.058Z,37.30
2019-05-07T06:30:14.216Z,42.15
2019-05-07T06:32:43.067Z,37.03
2019-05-07T06:35:12.378Z,38.60
2019-05-07T06:37:42.889Z,44.35
2019-05-07T06:40:31.626Z,32.50
2019-05-07T06:43:03.523Z,38.38
2019-05-07T06:45:36.276Z,40.52
2019-05-07T06:48:04.760Z,37.08
2019-05-07T06:50:33.169Z,41.45
2019-05-07T06:53:02.668Z,34.18
2019-05-07T06:55:32.376Z,35.75
2019-05-07T06:58:02.662Z,37.65
2019-05-07T07:00:33.288Z,38.67
2019-05-07T07:03:18.390Z,33.75
2019-05-07T07:05:57.492Z,36.33
2019-05-07T07:08:33.616Z,31.70
2019-05-07T07:11:12.938Z,36.63
2019-05-07T07:13:42.667Z,36.40
2019-05-07T07:16:12.811Z,29.07
2019-05-07T07:18:51.241Z,29.67
2019-05-07T07:21:12.379Z,38.17
2019-05-07T07:23:42.802Z,30.65
2019-05-07T07:26:12.627Z,39.10
2019-05-07T07:28:42.959Z,32.58
2019-05-07T07:31:13.119Z,34.88
2019-05-07T07:33:49.470Z,33.30
2019-05-07T07:36:18.934Z,38.15
2019-05-07T07:38:47.357Z,37.05
2019-05-07T07:41:23.430Z,33.58
2019-05-07T07:43:52.563Z,30.77
2019-05-07T07:46:24.122Z,28.75
2019-05-07T07:49:06.831Z,28.92
2019-05-07T07:51:37.263Z,31.55
2019-05-07T07:53:52.975Z,28.32
2019-05-07T07:56:23.250Z,27.82
2019-05-07T07:59:10.082Z,30.82
2019-05-07T08:01:45.926Z,26.35
2019-05-07T08:04:15.018Z,30.77
2019-05-07T08:06:43.450Z,28.83
2019-05-07T08:09:12.940Z,23.10
2019-05-07T08:11:42.931Z,31.23
2019-05-07T08:14:12.601Z,27.22
2019-05-07T08:16:42.976Z,29.37
2019-05-07T08:19:20.942Z,27.02
2019-05-07T08:21:42.109Z,24.52
2019-05-07T08:24:12.245Z,22.40
2019-05-07T08:26:42.840Z,22.98
2019-05-07T08:29:11.920Z,21.27
2019-05-07T08:31:42.512Z,25.37
2019-05-07T08:34:18.658Z,26.50
2019-05-07T08:36:47.507Z,18.70
2019-05-07T08:39:15.929Z,18.75
2019-05-07T08:41:44.364Z,17.98
2019-05-07T08:44:36.181Z,20.60
2019-05-07T08:47:14.843Z,18.23
2019-05-07T08:49:43.633Z,24.60
2019-05-07T08:52:12.199Z,21.50
2019-05-07T08:54:42.618Z,22.58
2019-05-07T08:57:12.107Z,23.70
2019-05-07T08:59:42.457Z,22.07
2019-05-07T09:02:12.563Z,21.75
2019-05-07T09:04:41.767Z,18.60
2019-05-07T09:07:10.302Z,18.82
2019-05-07T09:09:38.724Z,21.33
2019-05-07T09:12:07.145Z,24.40
2019-05-07T09:14:35.571Z,19.87
2019-05-07T09:17:04.146Z,20.90
2019-05-07T09:19:46.757Z,20.80
2019-05-07T09:22:03.604Z,15.58
2019-05-07T09:24:33.268Z,22.35
2019-05-07T09:27:12.536Z,19.57
2019-05-07T09:29:52.141Z,18.15
2019-05-07T09:32:32.692Z,24.32
2019-05-07T09:35:05.928Z,23.90
2019-05-07T09:37:34.342Z,19.95
2019-05-07T09:40:03.162Z,26.50
2019-05-07T09:42:33.375Z,23.42
2019-05-07T09:45:02.081Z,27.15
2019-05-07T09:47:32.565Z,22.10
2019-05-07T09:50:05.449Z,19.95
2019-05-07T09:52:32.114Z,24.67
2019-05-07T09:55:06.694Z,20.75
2019-05-07T09:57:33.916Z,24.30
2019-05-07T10:00:02.203Z,26.73
2019-05-07T10:02:32.082Z,23.83
2019-05-07T10:05:02.352Z,21.25
2019-05-07T10:07:32.503Z,23.35
2019-05-07T10:10:03.209Z,24.20
2019-05-07T10:12:39.110Z,22.17
2019-05-07T10:15:08.190Z,19.15
2019-05-07T10:17:40.994Z,22.27
2019-05-07T10:20:19.180Z,20.45
2019-05-07T10:22:42.693Z,25.45
2019-05-07T10:25:12.163Z,21.68
2019-05-07T10:27:41.831Z,19.77
2019-05-07T10:30:12.807Z,20.25
2019-05-07T10:32:42.116Z,22.15
2019-05-07T10:35:12.836Z,20.20
2019-05-07T10:37:42.293Z,19.95
2019-05-07T10:40:14.246Z,21.60
2019-05-07T10:42:43.259Z,21.17
2019-05-07T10:45:32.303Z,19.12
2019-05-07T10:48:11.731Z,16.73
2019-05-07T10:50:42.525Z,18.95
2019-05-07T10:53:12.576Z,16.95
2019-05-07T10:55:42.240Z,21.27
2019-05-07T10:58:11.305Z,21.15
2019-05-07T11:00:41.972Z,21.97
2019-05-07T11:03:10.121Z,20.55
2019-05-07T11:05:38.673Z,19.45
2019-05-07T11:08:07.171Z,20.55
2019-05-07T11:10:35.600Z,19.73
2019-05-07T11:13:04.124Z,18.00
2019-05-07T11:15:32.960Z,19.50
2019-05-07T11:18:03.699Z,20.27
2019-05-07T11:20:32.172Z,19.05
2019-05-07T11:23:02.497Z,18.27
2019-05-07T11:25:30.724Z,14.20
2019-05-07T11:27:59.227Z,12.00
2019-05-07T11:30:27.709Z,12.68
2019-05-07T11:32:56.131Z,13.20
2019-05-07T11:35:24.547Z,14.35
2019-05-07T11:37:53.066Z,12.35
2019-05-07T11:40:23.475Z,12.13
2019-05-07T11:42:59.337Z,13.40
2019-05-07T11:45:45.726Z,11.50
2019-05-07T11:48:14.711Z,12.40
2019-05-07T11:51:03.684Z,13.98
2019-05-07T11:53:32.561Z,13.37
2019-05-07T11:56:02.574Z,12.55
2019-05-07T11:58:32.462Z,17.80
2019-05-07T12:01:03.934Z,14.28
2019-05-07T12:03:32.695Z,10.82
2019-05-07T12:06:02.063Z,10.68
2019-05-07T12:08:39.345Z,12.82
2019-05-07T12:11:02.435Z,11.25
2019-05-07T12:13:32.355Z,13.58
2019-05-07T12:16:03.025Z,11.12
2019-05-07T12:18:31.959Z,12.70
2019-05-07T12:21:03.731Z,10.70
2019-05-07T12:23:33.035Z,13.30
2019-05-07T12:26:02.228Z,10.93
2019-05-07T12:28:32.770Z,10.80
2019-05-07T12:31:15.102Z,11.78
2019-05-07T12:33:52.215Z,10.28
2019-05-07T12:36:22.735Z,14.40
2019-05-07T12:38:53.291Z,11.03
2019-05-07T12:41:33.851Z,12.03
2019-05-07T12:44:04.345Z,14.87
2019-05-07T12:46:37.670Z,13.10
2019-05-07T12:49:06.253Z,14.33
2019-05-07T12:51:37.673Z,14.60
2019-05-07T12:54:26.322Z,12.82
2019-05-07T12:56:54.777Z,13.22
2019-05-07T12:59:23.211Z,14.50
2019-05-07T13:01:56.213Z,13.62
2019-05-07T13:04:26.277Z,14.47
2019-05-07T13:06:56.358Z,14.65
2019-05-07T13:09:24.785Z,11.85
2019-05-07T13:11:53.215Z,12.85
2019-05-07T13:14:21.924Z,15.25
2019-05-07T13:16:52.181Z,10.80
2019-05-07T13:19:22.424Z,15.58
2019-05-07T13:21:50.608Z,12.37
2019-05-07T13:24:19.029Z,14.38
2019-05-07T13:26:47.457Z,13.43
2019-05-07T13:29:15.879Z,14.18
2019-05-07T13:31:44.881Z,10.95
2019-05-07T13:34:13.541Z,10.95
2019-05-07T13:36:43.791Z,12.95
2019-05-07T13:39:23.322Z,8.98
2019-05-07T13:41:55.011Z,11.20
2019-05-07T13:44:25.317Z,10.25
2019-05-07T13:46:55.482Z,11.95
2019-05-07T13:49:24.132Z,12.82
2019-05-07T13:52:02.833Z,15.38
2019-05-07T13:54:23.020Z,12.00
2019-05-07T13:56:52.548Z,11.22
2019-05-07T13:59:22.323Z,10.82
2019-05-07T14:01:52.556Z,8.98
2019-05-07T14:04:22.289Z,8.60
2019-05-07T14:06:52.928Z,11.43
2019-05-07T14:09:25.552Z,12.18
2019-05-07T14:11:54.128Z,12.43
2019-05-07T14:14:22.681Z,16.40
2019-05-07T14:16:53.326Z,12.07
2019-05-07T14:19:22.437Z,24.07
2019-05-07T14:21:52.503Z,9.00
2019-05-07T14:24:22.900Z,12.28
2019-05-07T14:26:52.756Z,10.10
2019-05-07T14:29:24.383Z,10.45
2019-05-07T14:31:54.548Z,8.70
2019-05-07T14:34:24.659Z,10.63
2019-05-07T14:37:04.696Z,11.83
2019-05-07T14:39:36.221Z,9.08
2019-05-07T14:42:13.631Z,9.35
2019-05-07T14:44:48.826Z,8.70
2019-05-07T14:47:18.782Z,11.08
2019-05-07T14:49:48.241Z,9.55
2019-05-07T14:52:30.101Z,9.25
2019-05-07T14:54:50.274Z,13.13
2019-05-07T14:57:18.761Z,9.45
2019-05-07T14:59:47.323Z,10.32
2019-05-07T15:02:15.877Z,14.75
2019-05-07T15:04:52.508Z,13.40
2019-05-07T15:07:22.662Z,8.00
2019-05-07T15:09:51.880Z,10.35
2019-05-07T15:12:23.293Z,10.68
2019-05-07T15:14:53.554Z,15.18
2019-05-07T15:17:25.047Z,6.87
2019-05-07T15:19:53.729Z,10.15
2019-05-07T15:22:23.863Z,8.73
2019-05-07T15:24:55.023Z,10.30
2019-05-07T15:27:23.922Z,7.85
2019-05-07T15:29:52.748Z,12.28
2019-05-07T15:32:21.811Z,11.28
2019-05-07T15:34:52.554Z,11.90
2019-05-07T15:37:20.593Z,10.35
2019-05-07T15:39:49.015Z,11.35
2019-05-07T15:42:17.580Z,9.13
2019-05-07T15:44:46.060Z,12.80
2019-05-07T15:47:16.119Z,11.33
2019-05-07T15:49:44.549Z,8.93
2019-05-07T15:52:23.359Z,10.32
2019-05-07T15:54:54.775Z,10.38
2019-05-07T15:57:27.231Z,8.38
2019-05-07T15:59:57.304Z,12.73
2019-05-07T16:02:33.326Z,10.25
2019-05-07T16:05:04.994Z,12.25
2019-05-07T16:07:33.243Z,9.38
2019-05-07T16:10:01.673Z,10.70
2019-05-07T16:12:32.020Z,16.95
2019-05-07T16:15:00.445Z,13.20
2019-05-07T16:17:32.458Z,10.10
2019-05-07T16:20:02.986Z,13.13
2019-05-07T16:22:35.004Z,11.40
2019-05-07T16:25:07.197Z,14.78
2019-05-07T16:27:35.398Z,12.00
2019-05-07T16:30:05.982Z,12.82
2019-05-07T16:32:35.641Z,13.55
2019-05-07T16:35:05.651Z,8.80
2019-05-07T16:37:34.287Z,9.65
2019-05-07T16:40:04.767Z,12.58
2019-05-07T16:42:33.175Z,14.05
2019-05-07T16:45:02.864Z,12.85
2019-05-07T16:47:31.551Z,16.93
2019-05-07T16:50:05.610Z,12.95
2019-05-07T16:52:35.231Z,12.60
2019-05-07T16:55:04.087Z,11.43
2019-05-07T16:57:42.334Z,14.85
2019-05-07T17:00:25.644Z,11.57
2019-05-07T17:02:55.708Z,9.65
2019-05-07T17:05:24.137Z,14.47
2019-05-07T17:07:59.890Z,13.62
2019-05-07T17:10:28.303Z,12.47
2019-05-07T17:12:56.811Z,11.78
2019-05-07T17:15:25.390Z,11.53
2019-05-07T17:18:00.055Z,10.25
2019-05-07T17:20:29.522Z,11.88
2019-05-07T17:22:58.306Z,15.13
2019-05-07T17:25:30.472Z,14.07
2019-05-07T17:27:59.979Z,16.48
2019-05-07T17:30:28.413Z,14.30
2019-05-07T17:32:56.914Z,13.30
2019-05-07T17:35:25.413Z,11.43
2019-05-07T17:38:06.026Z,17.98
2019-05-07T17:40:24.118Z,15.38
2019-05-07T17:42:52.619Z,13.72
2019-05-07T17:45:22.748Z,20.02
2019-05-07T17:47:52.903Z,25.35
2019-05-07T17:50:35.279Z,14.18
2019-05-07T17:53:03.939Z,15.83
2019-05-07T17:55:33.180Z,13.80
2019-05-07T17:58:02.080Z,16.73
2019-05-07T18:00:32.688Z,12.70
2019-05-07T18:03:14.501Z,15.78
2019-05-07T18:05:44.284Z,10.90
2019-05-07T18:08:15.856Z,13.53
2019-05-07T18:10:44.352Z,14.25
2019-05-07T18:13:12.830Z,12.07
2019-05-07T18:15:42.746Z,17.35
2019-05-07T18:18:15.345Z,16.40
2019-05-07T18:20:43.888Z,13.93
2019-05-07T18:23:17.233Z,14.20
2019-05-07T18:25:42.848Z,18.02
2019-05-07T18:28:12.445Z,15.98
2019-05-07T18:30:41.083Z,14.10
2019-05-07T18:33:16.715Z,14.87
2019-05-07T18:35:46.881Z,17.35
2019-05-07T18:38:15.446Z,12.35
2019-05-07T18:40:43.872Z,14.25
2019-05-07T18:43:14.843Z,14.53
2019-05-07T18:45:43.895Z,19.82
2019-05-07T18:48:12.377Z,15.08
2019-05-07T18:50:42.416Z,20.30
2019-05-07T18:53:12.153Z,17.17
2019-05-07T18:55:42.317Z,18.77
2019-05-07T18:58:13.204Z,12.43
2019-05-07T19:00:48.708Z,13.13
2019-05-07T19:03:17.130Z,15.95
2019-05-07T19:05:48.675Z,13.00
2019-05-07T19:08:17.222Z,15.58
2019-05-07T19:10:45.731Z,16.12
2019-05-07T19:13:14.294Z,20.00
2019-05-07T19:15:44.647Z,13.62
2019-05-07T19:18:13.065Z,17.00
2019-05-07T19:20:42.155Z,18.62
2019-05-07T19:23:26.763Z,20.00
2019-05-07T19:25:55.222Z,14.80
2019-05-07T19:28:23.637Z,18.57
2019-05-07T19:30:52.907Z,20.27
2019-05-07T19:33:26.758Z,18.48
2019-05-07T19:35:52.916Z,16.05
2019-05-07T19:38:21.472Z,15.78
2019-05-07T19:40:49.964Z,16.82
2019-05-07T19:43:18.404Z,19.35
2019-05-07T19:45:46.846Z,16.70
2019-05-07T19:48:15.320Z,15.32
2019-05-07T19:50:43.846Z,15.45
2019-05-07T19:53:12.589Z,14.28
2019-05-07T19:55:45.376Z,15.85
2019-05-07T19:58:12.976Z,15.80
2019-05-07T20:00:42.783Z,17.73
2019-05-07T20:03:13.118Z,16.77
2019-05-07T20:05:42.002Z,20.05
2019-05-07T20:08:12.023Z,12.60
2019-05-07T20:10:42.318Z,20.92
2019-05-07T20:13:12.455Z,16.30
2019-05-07T20:15:42.927Z,14.80
2019-05-07T20:18:12.431Z,14.75
2019-05-07T20:20:42.450Z,15.70
2019-05-07T20:23:12.888Z,19.85
2019-05-07T20:25:42.010Z,16.45
2019-05-07T20:28:12.718Z,13.50
2019-05-07T20:30:41.815Z,17.25
2019-05-07T20:33:10.552Z,18.00
2019-05-07T20:35:41.285Z,12.58
2019-05-07T20:38:09.470Z,15.15
2019-05-07T20:40:38.147Z,14.65
2019-05-07T20:43:09.479Z,14.20
2019-05-07T20:45:38.081Z,13.65
2019-05-07T20:48:06.910Z,13.43
2019-05-07T20:50:35.472Z,14.65
2019-05-07T20:53:04.161Z,18.15
2019-05-07T20:55:39.996Z,13.55
2019-05-07T20:58:08.561Z,17.02
2019-05-07T21:00:37.293Z,11.05
2019-05-07T21:03:23.345Z,12.18
2019-05-07T21:05:53.225Z,14.90
2019-05-07T21:08:22.707Z,14.40
2019-05-07T21:10:57.747Z,14.00
2019-05-07T21:15:55.568Z,13.70
2019-05-07T21:18:24.006Z,13.22
2019-05-07T21:20:53.071Z,15.35
2019-05-07T21:23:23.071Z,17.80
2019-05-07T21:25:52.734Z,13.15
2019-05-07T21:28:21.744Z,15.58
2019-05-07T21:30:52.261Z,15.88
2019-05-07T21:33:22.602Z,14.80
2019-05-07T21:35:52.265Z,16.90
2019-05-07T21:38:22.362Z,14.70
2019-05-07T21:40:50.863Z,15.35
2019-05-07T21:43:19.302Z,24.07
2019-05-07T21:45:47.733Z,19.82
2019-05-07T21:48:16.182Z,15.25
2019-05-07T21:50:44.615Z,17.92
2019-05-07T21:53:29.387Z,16.12
2019-05-07T21:58:43.872Z,17.50
2019-05-07T22:01:14.037Z,18.87
2019-05-07T22:03:44.338Z,14.30
2019-05-07T22:06:14.409Z,14.58
2019-05-07T22:08:42.916Z,15.18
2019-05-07T22:11:12.457Z,22.07
2019-05-07T22:13:43.309Z,15.75
2019-05-07T22:16:12.989Z,15.28
2019-05-07T22:18:42.722Z,14.10
2019-05-07T22:21:12.439Z,15.15
2019-05-07T22:23:42.870Z,10.43
2019-05-07T22:26:20.351Z,13.85
2019-05-07T22:28:42.134Z,12.95
2019-05-07T22:31:31.656Z,14.70
2019-05-07T22:34:07.491Z,15.63
2019-05-07T22:36:35.925Z,12.05
2019-05-07T22:39:05.791Z,11.45
2019-05-07T22:41:34.245Z,13.13
2019-05-07T22:44:02.698Z,11.95
2019-05-07T22:46:32.653Z,12.70
2019-05-07T22:49:03.109Z,12.10
2019-05-07T22:51:31.562Z,13.80
2019-05-07T22:54:03.906Z,14.63
2019-05-07T22:56:48.078Z,13.18
2019-05-07T22:59:17.794Z,14.65
2019-05-07T23:01:46.232Z,16.37
2019-05-07T23:04:14.665Z,21.05
2019-05-07T23:06:43.675Z,12.45
2019-05-07T23:09:12.799Z,12.50
2019-05-07T23:11:41.375Z,17.10
2019-05-07T23:14:11.795Z,16.90
2019-05-07T23:16:39.999Z,11.97
2019-05-07T23:19:08.462Z,20.55
2019-05-07T23:21:36.889Z,12.80
2019-05-07T23:24:05.384Z,17.77
2019-05-07T23:26:47.226Z,12.13
2019-05-07T23:29:03.988Z,15.68
2019-05-07T23:31:32.423Z,12.33
2019-05-07T23:34:01.896Z,12.75
2019-05-07T23:36:30.582Z,12.07
2019-05-07T23:38:59.011Z,15.90
2019-05-07T23:41:45.455Z,24.02
2019-05-07T23:44:17.916Z,13.80
2019-05-07T23:46:47.555Z,15.83
2019-05-07T23:49:15.979Z,16.23
2019-05-07T23:51:44.482Z,13.32
2019-05-07T23:54:12.961Z,23.35
2019-05-07T23:56:42.655Z,15.28
2019-05-07T23:59:12.740Z,12.45
